Time;durP1;ratioP1;P1;durP2;ratioP2;P2;SDS_P1;SDS_P2;PMS_P1;PMS_P2;Temp;Humidity;BMP_temperature;BMP_pressure;BME280_temperature;BME280_humidity;BME280_pressure;Samples;Min_cycle;Max_cycle;Signal;HPM_P1;HPM_P2
2023/12/17 00:01:34;;;;;;;2.83;0.45;;;10.00;99.90;;;;;;5115408;28;20371;-76
2023/12/17 00:04:00;;;;;;;5.53;1.45;;;10.00;99.90;;;;;;5115108;28;20024;-76
2023/12/17 00:06:26;;;;;;;4.78;1.17;;;10.00;99.90;;;;;;5096942;28;20038;-76
2023/12/17 00:08:52;;;;;;;4.22;0.85;;;10.00;99.90;;;;;;5097231;28;20055;-76
2023/12/17 00:11:20;;;;;;;7.63;0.88;;;10.00;99.90;;;;;;5115301;28;20024;-76
2023/12/17 00:13:45;;;;;;;5.60;1.30;;;10.00;99.90;;;;;;5115217;28;20054;-76
2023/12/17 00:16:11;;;;;;;7.25;2.35;;;9.90;99.90;;;;;;5097338;28;20024;-76
2023/12/17 00:18:37;;;;;;;9.85;1.02;;;9.90;99.90;;;;;;5115156;28;20024;-76
2023/12/17 00:21:03;;;;;;;8.52;1.10;;;9.90;99.90;;;;;;5115126;28;20020;-76
2023/12/17 00:23:29;;;;;;;6.47;1.35;;;9.90;99.90;;;;;;5115086;28;20023;-76
2023/12/17 00:25:55;;;;;;;5.13;1.05;;;9.90;99.90;;;;;;5115072;28;20034;-76
2023/12/17 00:28:20;;;;;;;1.83;0.68;;;9.90;99.90;;;;;;5096874;28;20447;-76
2023/12/17 00:30:46;;;;;;;4.88;0.77;;;9.90;99.90;;;;;;5114717;28;20016;-76
2023/12/17 00:33:11;;;;;;;5.63;0.43;;;9.90;99.90;;;;;;5115076;28;20023;-76
2023/12/17 00:35:38;;;;;;;3.65;0.95;;;9.90;99.90;;;;;;5096436;28;20119;-76
2023/12/17 00:38:04;;;;;;;11.18;1.40;;;10.00;99.90;;;;;;5114493;28;20043;-76
2023/12/17 00:40:30;;;;;;;7.72;0.68;;;10.00;99.90;;;;;;5114396;28;20063;-76
2023/12/17 00:42:55;;;;;;;5.75;0.82;;;10.00;99.90;;;;;;5114969;28;20054;-76
2023/12/17 00:45:21;;;;;;;8.13;1.25;;;10.00;99.90;;;;;;5114967;28;20062;-76
2023/12/17 00:47:46;;;;;;;4.25;1.15;;;10.00;99.90;;;;;;5114710;28;20028;-76
2023/12/17 00:50:12;;;;;;;5.05;0.93;;;10.00;99.90;;;;;;5114114;28;20442;-76
2023/12/17 00:52:37;;;;;;;4.32;0.82;;;10.90;99.90;;;;;;5114829;28;20180;-76
2023/12/17 00:55:03;;;;;;;3.10;1.17;;;10.00;99.90;;;;;;5114296;28;20026;-76
2023/12/17 00:57:29;;;;;;;3.40;0.90;;;10.00;99.90;;;;;;5096003;28;20027;-76
2023/12/17 00:59:56;;;;;;;12.15;1.50;;;9.80;99.90;;;;;;5095891;28;20015;-76
2023/12/17 01:02:21;;;;;;;8.00;0.90;;;10.00;99.90;;;;;;5114632;28;20023;-76
2023/12/17 01:04:47;;;;;;;3.90;0.63;;;9.90;99.90;;;;;;5095058;28;20035;-76
2023/12/17 01:07:13;;;;;;;9.50;1.00;;;9.90;99.90;;;;;;5095696;28;20027;-76
2023/12/17 01:09:39;;;;;;;11.68;0.77;;;9.90;99.90;;;;;;5095650;28;20397;-76
2023/12/17 01:12:05;;;;;;;6.82;1.45;;;10.00;99.90;;;;;;5095695;28;20107;-76
2023/12/17 01:14:34;;;;;;;5.93;1.00;;;9.90;99.90;;;;;;5114612;28;20028;-76
2023/12/17 01:17:00;;;;;;;5.03;0.85;;;9.90;99.90;;;;;;5113933;28;20416;-76
2023/12/17 01:19:26;;;;;;;4.90;1.20;;;9.90;99.90;;;;;;5114223;28;20033;-76
2023/12/17 01:21:53;;;;;;;10.48;1.10;;;9.90;99.90;;;;;;5114024;28;20027;-76
2023/12/17 01:24:19;;;;;;;5.53;1.08;;;9.90;99.90;;;;;;5095585;28;20023;-76
2023/12/17 01:26:44;;;;;;;8.02;1.33;;;9.90;99.90;;;;;;5095587;28;20076;-76
2023/12/17 01:29:10;;;;;;;3.72;1.00;;;9.90;99.90;;;;;;5114125;28;20039;-76
2023/12/17 01:31:39;;;;;;;3.20;0.80;;;9.90;99.90;;;;;;5113731;28;20433;-76
2023/12/17 01:34:07;;;;;;;7.18;1.10;;;9.90;99.90;;;;;;5114024;28;20023;-76
2023/12/17 01:36:34;;;;;;;3.80;1.15;;;9.90;99.90;;;;;;5114122;28;20051;-76
2023/12/17 01:38:59;;;;;;;10.18;1.27;;;9.90;99.90;;;;;;5095581;28;20031;-76
2023/12/17 01:41:25;;;;;;;3.80;1.20;;;9.90;99.90;;;;;;5114008;28;20036;-76
2023/12/17 01:43:50;;;;;;;5.43;1.35;;;9.90;99.90;;;;;;5095411;28;20020;-76
2023/12/17 01:46:16;;;;;;;5.18;0.90;;;9.90;99.90;;;;;;5095852;28;20043;-76
2023/12/17 01:48:43;;;;;;;3.22;0.88;;;9.90;99.90;;;;;;5114405;28;20024;-76
2023/12/17 01:51:10;;;;;;;5.53;1.55;;;9.80;99.90;;;;;;5114179;28;20054;-76
2023/12/17 01:53:35;;;;;;;2.53;0.73;;;9.80;99.90;;;;;;5095563;28;20067;-76
2023/12/17 01:56:01;;;;;;;2.55;0.85;;;9.90;99.90;;;;;;5114266;28;20102;-76
2023/12/17 01:58:28;;;;;;;4.47;1.05;;;9.90;99.90;;;;;;5113671;28;20153;-76
2023/12/17 02:00:55;;;;;;;4.93;0.80;;;9.90;99.90;;;;;;5095269;28;20391;-76
2023/12/17 02:03:21;;;;;;;5.07;0.93;;;10.50;99.90;;;;;;5095105;28;20026;-76
2023/12/17 02:05:46;;;;;;;5.10;1.27;;;9.90;99.90;;;;;;5113555;28;20110;-76
2023/12/17 02:08:12;;;;;;;6.70;1.20;;;9.90;99.90;;;;;;5114226;28;20047;-76
2023/12/17 02:10:38;;;;;;;2.90;0.80;;;9.90;99.90;;;;;;5113486;28;20032;-76
2023/12/17 02:13:04;;;;;;;2.13;0.65;;;9.90;99.90;;;;;;5095344;28;20020;-76
2023/12/17 02:15:29;;;;;;;8.25;1.02;;;9.90;99.90;;;;;;5114190;28;20016;-76
2023/12/17 02:17:55;;;;;;;1.98;0.32;;;10.10;99.90;;;;;;5099316;28;20023;-76
2023/12/17 02:20:21;;;;;;;1.73;0.50;;;9.90;99.90;;;;;;5117555;28;20359;-76
2023/12/17 02:22:53;;;;;;;3.83;0.60;;;9.90;99.90;;;;;;5099224;28;20023;-76
2023/12/17 02:25:18;;;;;;;8.38;0.55;;;10.00;99.90;;;;;;5099256;28;20467;-76
2023/12/17 02:27:44;;;;;;;4.65;1.10;;;9.90;99.90;;;;;;5117606;28;20027;-76
2023/12/17 02:30:10;;;;;;;4.32;1.02;;;10.00;99.90;;;;;;5117382;28;20064;-76
2023/12/17 02:32:36;;;;;;;6.55;1.40;;;9.90;99.90;;;;;;5098641;28;20027;-76
2023/12/17 02:35:01;;;;;;;4.60;0.70;;;10.00;99.90;;;;;;5117623;28;20367;-76
2023/12/17 02:37:27;;;;;;;1.48;0.82;;;10.00;99.90;;;;;;5117237;28;20027;-76
2023/12/17 02:39:52;;;;;;;3.35;0.70;;;10.00;99.90;;;;;;5117362;28;20376;-76
2023/12/17 02:42:21;;;;;;;2.33;0.68;;;10.00;99.90;;;;;;5117748;28;20036;-76
2023/12/17 02:44:47;;;;;;;4.15;0.80;;;10.00;99.90;;;;;;5098749;28;20375;-76
2023/12/17 02:47:13;;;;;;;3.38;0.65;;;10.00;99.90;;;;;;5117069;28;20072;-76
2023/12/17 02:49:41;;;;;;;3.38;0.98;;;10.00;99.90;;;;;;5116998;28;20072;-76
2023/12/17 02:52:06;;;;;;;2.53;0.98;;;10.00;99.90;;;;;;5117290;28;20070;-76
2023/12/17 02:54:32;;;;;;;1.98;0.50;;;10.00;99.90;;;;;;5116879;28;20024;-76
2023/12/17 02:56:58;;;;;;;1.42;0.50;;;10.00;99.90;;;;;;5098691;28;20012;-76
2023/12/17 02:59:23;;;;;;;6.07;1.55;;;10.00;99.90;;;;;;5117277;28;20049;-76
2023/12/17 03:01:50;;;;;;;1.08;0.30;;;10.00;99.90;;;;;;5117042;28;20061;-76
2023/12/17 03:04:17;;;;;;;1.88;0.38;;;10.00;99.90;;;;;;5116894;28;20031;-76
2023/12/17 03:06:43;;;;;;;3.50;0.28;;;10.00;99.90;;;;;;5117167;28;20031;-76
2023/12/17 03:09:10;;;;;;;2.42;0.40;;;10.00;99.90;;;;;;5098011;28;20028;-76
2023/12/17 03:11:36;;;;;;;3.90;0.35;;;10.00;99.90;;;;;;5116390;28;20570;-76
2023/12/17 03:14:02;;;;;;;4.07;0.20;;;10.00;99.90;;;;;;5116938;28;20016;-76
2023/12/17 03:16:28;;;;;;;2.45;0.88;;;10.00;99.90;;;;;;5116893;28;20062;-76
2023/12/17 03:18:54;;;;;;;5.65;0.25;;;10.00;99.90;;;;;;5116342;28;20364;-76
2023/12/17 03:21:19;;;;;;;4.15;0.20;;;9.90;99.90;;;;;;5097969;28;20107;-76
2023/12/17 03:23:45;;;;;;;4.60;0.63;;;10.00;99.90;;;;;;5097921;28;20051;-76
2023/12/17 03:26:14;;;;;;;6.45;0.50;;;10.00;99.90;;;;;;5116627;28;20393;-76
2023/12/17 03:28:39;;;;;;;2.97;0.43;;;10.00;99.90;;;;;;5096898;28;20031;-76
2023/12/17 03:31:05;;;;;;;10.68;1.92;;;10.00;99.90;;;;;;5116057;28;20372;-76
2023/12/17 03:33:30;;;;;;;5.82;0.98;;;10.00;99.90;;;;;;5098034;28;20065;-76
2023/12/17 03:35:56;;;;;;;10.60;1.27;;;11.10;99.90;;;;;;5116175;28;20019;-76
2023/12/17 03:38:22;;;;;;;6.32;0.88;;;9.90;99.90;;;;;;5116004;28;20570;-76
2023/12/17 03:40:47;;;;;;;6.05;1.92;;;9.90;99.90;;;;;;5098364;28;20035;-76
2023/12/17 03:43:13;;;;;;;5.50;0.95;;;9.90;99.90;;;;;;5115927;28;20364;-76
2023/12/17 03:45:39;;;;;;;5.85;1.50;;;10.00;99.90;;;;;;5098228;28;20394;-75
2023/12/17 03:48:06;;;;;;;8.70;0.93;;;9.90;99.90;;;;;;5116235;28;20034;-75
2023/12/17 03:50:32;;;;;;;4.85;0.70;;;10.00;99.90;;;;;;5116140;28;20023;-75
2023/12/17 03:52:57;;;;;;;10.35;1.80;;;9.90;99.90;;;;;;5116749;28;20023;-75
2023/12/17 03:55:23;;;;;;;11.82;1.60;;;10.00;99.90;;;;;;5116495;28;20034;-75
2023/12/17 03:57:49;;;;;;;7.45;1.40;;;10.00;99.90;;;;;;5097911;28;20106;-75
2023/12/17 04:00:15;;;;;;;7.07;1.23;;;9.90;99.90;;;;;;5097713;28;20047;-75
2023/12/17 04:02:41;;;;;;;8.23;1.58;;;9.90;99.90;;;;;;5116026;28;20387;-75
2023/12/17 04:05:07;;;;;;;9.38;1.83;;;9.90;99.90;;;;;;5116065;28;20471;-75
2023/12/17 04:07:33;;;;;;;8.73;1.52;;;9.90;99.90;;;;;;5116434;28;20023;-75
2023/12/17 04:10:02;;;;;;;8.88;2.25;;;9.80;99.90;;;;;;5115596;28;20023;-75
2023/12/17 04:12:28;;;;;;;7.03;2.17;;;9.90;99.90;;;;;;5097808;28;20054;-75
2023/12/17 04:14:54;;;;;;;7.18;1.70;;;9.90;99.90;;;;;;5097291;28;20015;-75
2023/12/17 04:17:19;;;;;;;11.90;2.00;;;9.80;99.90;;;;;;5116075;28;20024;-75
2023/12/17 04:19:45;;;;;;;5.72;1.10;;;9.80;99.90;;;;;;5096938;28;20019;-75
2023/12/17 04:22:11;;;;;;;3.88;1.42;;;9.80;99.90;;;;;;5116020;28;20027;-75
2023/12/17 04:24:36;;;;;;;9.70;2.22;;;9.90;99.90;;;;;;5097026;28;20028;-75
2023/12/17 04:27:02;;;;;;;9.40;3.47;;;9.80;99.90;;;;;;5115125;28;20035;-75
2023/12/17 04:29:28;;;;;;;6.05;1.63;;;9.80;99.90;;;;;;5115038;28;20503;-75
2023/12/17 04:31:53;;;;;;;9.38;2.85;;;9.80;99.90;;;;;;5115106;28;20019;-75
2023/12/17 04:34:19;;;;;;;11.55;2.75;;;9.80;99.90;;;;;;5115337;28;20390;-75
2023/12/17 04:36:44;;;;;;;11.43;3.25;;;9.80;99.90;;;;;;5114671;28;20020;-75
2023/12/17 04:39:10;;;;;;;12.10;2.85;;;9.80;99.90;;;;;;5096224;28;20475;-75
2023/12/17 04:41:36;;;;;;;8.45;2.72;;;9.70;99.90;;;;;;5115374;28;20044;-75
2023/12/17 04:44:02;;;;;;;6.40;1.75;;;9.80;99.90;;;;;;5096513;28;20029;-75
2023/12/17 04:46:29;;;;;;;12.65;3.60;;;9.70;99.90;;;;;;5114673;28;20027;-75
2023/12/17 04:48:55;;;;;;;6.85;2.05;;;9.70;99.90;;;;;;5115063;28;20378;-75
2023/12/17 04:51:21;;;;;;;8.80;1.90;;;9.70;99.90;;;;;;5114700;28;20024;-75
2023/12/17 04:53:47;;;;;;;7.45;2.13;;;9.70;99.90;;;;;;5115256;28;20030;-75
2023/12/17 04:56:13;;;;;;;9.00;1.98;;;9.70;99.90;;;;;;5114436;28;20023;-75
2023/12/17 04:58:38;;;;;;;7.95;1.95;;;9.70;99.90;;;;;;5114645;28;20030;-75
2023/12/17 05:01:04;;;;;;;10.55;2.72;;;9.70;99.90;;;;;;5096397;28;20034;-75
2023/12/17 05:03:29;;;;;;;13.57;2.97;;;9.70;99.90;;;;;;5114506;28;20032;-75
2023/12/17 05:05:55;;;;;;;8.23;2.15;;;9.70;99.90;;;;;;5114915;28;20527;-75
2023/12/17 05:08:21;;;;;;;9.63;2.70;;;9.70;99.90;;;;;;5114342;28;20034;-75
2023/12/17 05:10:46;;;;;;;7.53;3.08;;;9.60;99.90;;;;;;5114124;28;20019;-75
2023/12/17 05:13:12;;;;;;;11.30;2.33;;;9.60;99.90;;;;;;5114230;28;20073;-75
2023/12/17 05:15:37;;;;;;;4.07;1.55;;;9.70;99.90;;;;;;5114211;28;20011;-75
2023/12/17 05:18:03;;;;;;;12.50;2.20;;;9.60;99.90;;;;;;5114819;28;20351;-75
2023/12/17 05:20:29;;;;;;;10.75;1.70;;;9.70;99.90;;;;;;5113918;28;20016;-75
2023/12/17 05:22:54;;;;;;;9.40;1.42;;;9.60;99.90;;;;;;5114087;28;20149;-75
2023/12/17 05:25:21;;;;;;;10.13;1.73;;;9.60;99.90;;;;;;5113984;28;20047;-75
2023/12/17 05:27:46;;;;;;;6.72;1.73;;;9.60;99.90;;;;;;5096103;28;20027;-75
2023/12/17 05:30:12;;;;;;;9.65;1.40;;;9.60;99.90;;;;;;5096096;28;20015;-75
2023/12/17 05:32:38;;;;;;;6.55;0.82;;;9.60;99.90;;;;;;5113935;28;20027;-75
2023/12/17 05:35:04;;;;;;;5.95;1.35;;;9.60;99.90;;;;;;5113911;28;20100;-75
2023/12/17 05:37:30;;;;;;;5.72;1.02;;;9.50;99.90;;;;;;5115280;28;20051;-75
2023/12/17 05:39:55;;;;;;;3.88;1.73;;;9.50;99.90;;;;;;5113836;28;20032;-75
2023/12/17 05:42:21;;;;;;;7.30;1.33;;;9.50;99.90;;;;;;5115110;28;20055;-77
2023/12/17 05:44:47;;;;;;;9.05;0.82;;;9.60;99.90;;;;;;5115473;28;20019;-77
2023/12/17 05:47:12;;;;;;;6.78;1.13;;;9.50;99.90;;;;;;5114803;28;20039;-75
2023/12/17 05:49:39;;;;;;;4.47;1.48;;;9.60;99.90;;;;;;5096477;28;20031;-77
2023/12/17 05:52:13;;;;;;;10.90;1.80;;;9.60;99.90;;;;;;5118661;28;20020;-78
2023/12/17 05:54:39;;;;;;;11.02;2.05;;;9.50;99.90;;;;;;5119234;28;20028;-77
2023/12/17 05:57:05;;;;;;;8.88;1.63;;;9.50;99.90;;;;;;5119584;28;20502;-77
2023/12/17 05:59:30;;;;;;;13.32;2.33;;;9.50;99.90;;;;;;5119884;28;20027;-75
2023/12/17 06:01:59;;;;;;;10.85;2.45;;;9.60;99.90;;;;;;5100148;28;20016;-76
2023/12/17 06:04:24;;;;;;;10.32;2.53;;;9.60;99.90;;;;;;5118398;28;20030;-77
2023/12/17 06:06:50;;;;;;;15.18;2.20;;;9.60;99.90;;;;;;5118805;28;20099;-74
2023/12/17 06:09:16;;;;;;;7.57;2.08;;;9.60;99.90;;;;;;5119089;28;20044;-76
2023/12/17 06:11:41;;;;;;;9.73;2.15;;;9.60;99.90;;;;;;5118148;28;20024;-76
2023/12/17 06:14:07;;;;;;;12.30;3.47;;;9.60;99.90;;;;;;5118205;28;20037;-76
2023/12/17 06:16:32;;;;;;;8.43;2.50;;;9.50;99.90;;;;;;5118279;28;20024;-77
2023/12/17 06:18:58;;;;;;;15.98;4.05;;;9.50;99.90;;;;;;5118249;28;20059;-77
2023/12/17 06:21:25;;;;;;;13.35;3.28;;;9.60;99.90;;;;;;5099855;28;20075;-77
2023/12/17 06:23:52;;;;;;;10.00;3.55;;;9.50;99.90;;;;;;5100032;28;20036;-76
2023/12/17 06:26:20;;;;;;;11.23;3.33;;;9.40;99.90;;;;;;5100034;28;20380;-76
2023/12/17 06:28:46;;;;;;;10.15;3.60;;;9.40;99.90;;;;;;5099882;28;20418;-76
2023/12/17 06:31:12;;;;;;;11.90;3.63;;;9.50;99.90;;;;;;5117895;28;20027;-77
2023/12/17 06:33:38;;;;;;;10.60;3.90;;;9.50;99.90;;;;;;5117491;28;20057;-77
2023/12/17 06:36:04;;;;;;;16.52;4.25;;;9.50;99.90;;;;;;5117262;28;20098;-77
2023/12/17 06:38:30;;;;;;;11.55;4.03;;;9.40;99.90;;;;;;5099201;28;20023;-78
2023/12/17 06:40:56;;;;;;;11.02;4.05;;;9.50;99.90;;;;;;5117448;28;20035;-76
2023/12/17 06:43:21;;;;;;;14.60;4.05;;;9.60;99.90;;;;;;5117416;28;20050;-76
2023/12/17 06:45:47;;;;;;;14.93;4.88;;;9.40;99.90;;;;;;5117612;28;20368;-77
2023/12/17 06:48:13;;;;;;;16.45;5.30;;;9.40;99.90;;;;;;5117781;28;20032;-76
2023/12/17 06:50:38;;;;;;;15.15;5.75;;;9.40;99.90;;;;;;5117630;28;20091;-76
2023/12/17 06:53:04;;;;;;;16.75;5.53;;;9.40;99.90;;;;;;5099419;28;20026;-74
2023/12/17 06:55:32;;;;;;;26.50;7.18;;;9.40;99.90;;;;;;5117927;28;20467;-76
2023/12/17 06:57:58;;;;;;;22.45;7.07;;;9.60;99.90;;;;;;5117654;28;20023;-75
2023/12/17 07:00:24;;;;;;;30.48;8.32;;;9.40;99.90;;;;;;5117399;28;20551;-76
2023/12/17 07:02:50;;;;;;;17.23;7.25;;;9.40;99.90;;;;;;5117113;28;20068;-77
2023/12/17 07:05:16;;;;;;;23.20;7.68;;;9.30;99.90;;;;;;5117627;28;20016;-75
2023/12/17 07:07:43;;;;;;;23.70;9.20;;;9.30;99.90;;;;;;5098637;28;20049;-76
2023/12/17 07:10:11;;;;;;;20.05;7.63;;;10.00;99.90;;;;;;5116774;28;20020;-77
2023/12/17 07:12:37;;;;;;;23.90;7.15;;;9.40;99.90;;;;;;5098611;28;20535;-77
2023/12/17 07:15:03;;;;;;;24.98;7.45;;;9.40;99.90;;;;;;5116905;28;20022;-76
2023/12/17 07:17:30;;;;;;;20.27;6.55;;;9.40;99.90;;;;;;5117235;28;20486;-77
2023/12/17 07:19:55;;;;;;;18.75;6.70;;;9.40;99.90;;;;;;5117174;28;20035;-77
2023/12/17 07:22:22;;;;;;;17.27;6.40;;;9.40;99.90;;;;;;5117880;28;20028;-77
2023/12/17 07:24:49;;;;;;;18.98;6.70;;;9.30;99.90;;;;;;5117145;28;20093;-76
2023/12/17 07:27:14;;;;;;;17.52;6.30;;;9.40;99.90;;;;;;5098874;28;20472;-76
2023/12/17 07:29:43;;;;;;;17.63;6.60;;;9.40;99.90;;;;;;5099069;28;20047;-74
2023/12/17 07:32:09;;;;;;;16.70;6.57;;;9.40;99.90;;;;;;5116725;28;20036;-76
2023/12/17 07:34:34;;;;;;;19.20;6.95;;;9.30;99.90;;;;;;5116351;28;20064;-75
2023/12/17 07:37:00;;;;;;;18.38;6.78;;;9.90;99.90;;;;;;5116665;28;20058;-77
2023/12/17 07:39:26;;;;;;;13.90;5.53;;;9.30;99.90;;;;;;5116455;28;20020;-77
2023/12/17 07:41:55;;;;;;;19.55;5.97;;;9.30;99.90;;;;;;5116780;28;20031;-77
2023/12/17 07:44:20;;;;;;;12.82;5.43;;;9.30;99.90;;;;;;5116924;28;20051;-76
2023/12/17 07:46:46;;;;;;;17.60;5.22;;;9.30;99.90;;;;;;5116067;28;20077;-77
2023/12/17 07:49:12;;;;;;;17.52;5.40;;;9.30;99.90;;;;;;5116101;28;20024;-77
2023/12/17 07:51:38;;;;;;;9.48;4.15;;;9.30;99.90;;;;;;5097946;28;20023;-76
2023/12/17 07:54:06;;;;;;;12.20;4.88;;;;;;;;;;5116349;28;20035;-77
2023/12/17 07:56:31;;;;;;;15.05;4.78;;;9.30;99.90;;;;;;5097965;28;20058;-76
2023/12/17 07:58:57;;;;;;;10.13;5.15;;;9.20;99.90;;;;;;5097823;28;20024;-76
2023/12/17 08:01:30;;;;;;;10.32;4.32;;;9.30;99.90;;;;;;5116144;28;20028;-76
2023/12/17 08:03:57;;;;;;;11.60;4.38;;;9.30;99.90;;;;;;5116041;28;20027;-76
2023/12/17 08:06:23;;;;;;;14.80;5.88;;;9.80;99.90;;;;;;5115971;28;20047;-76
2023/12/17 08:08:50;;;;;;;16.13;4.45;;;9.30;99.90;;;;;;5116021;28;20479;-76
2023/12/17 08:11:16;;;;;;;15.63;5.72;;;9.20;99.90;;;;;;5097539;28;20046;-76
2023/12/17 08:13:42;;;;;;;20.85;5.40;;;9.20;99.90;;;;;;5115192;28;20012;-77
2023/12/17 08:16:08;;;;;;;11.32;4.18;;;9.30;99.90;;;;;;5097419;28;20031;-76
2023/12/17 08:18:34;;;;;;;12.68;4.72;;;9.20;99.90;;;;;;5115528;28;20028;-77
2023/12/17 08:21:03;;;;;;;10.02;4.30;;;9.10;99.90;;;;;;5097684;28;20173;-77
2023/12/17 08:23:28;;;;;;;;;;;9.10;99.90;;;;;;5115881;28;20039;-76
2023/12/17 08:25:54;;;;;;;10.43;4.25;;;9.10;99.90;;;;;;5116057;28;19907;-76
2023/12/17 08:28:20;;;;;;;11.95;4.38;;;9.00;99.90;;;;;;5097134;28;20035;-77
2023/12/17 08:30:46;;;;;;;12.38;4.63;;;9.00;99.90;;;;;;5097445;28;20403;-78
2023/12/17 08:33:12;;;;;;;14.27;4.30;;;9.00;99.90;;;;;;5097164;28;20024;-77
2023/12/17 08:35:38;;;;;;;13.43;4.90;;;9.00;99.90;;;;;;5097062;28;20548;-78
2023/12/17 08:38:06;;;;;;;11.93;5.15;;;9.00;99.90;;;;;;5115303;28;20020;-78
2023/12/17 08:40:39;;;;;;;13.55;4.60;;;9.00;99.90;;;;;;5096845;28;20106;-77
2023/12/17 08:43:06;;;;;;;12.45;4.53;;;9.00;99.90;;;;;;5115535;28;20022;-77
2023/12/17 08:45:32;;;;;;;13.35;5.70;;;9.00;99.90;;;;;;5115548;28;20020;-76
2023/12/17 08:47:59;;;;;;;12.80;5.15;;;9.00;99.90;;;;;;5096664;28;20063;-77
2023/12/17 08:50:24;;;;;;;11.30;5.22;;;9.00;99.90;;;;;;5096394;28;20027;-76
2023/12/17 08:52:50;;;;;;;16.42;6.55;;;9.00;99.90;;;;;;5115241;28;20024;-76
2023/12/17 08:55:15;;;;;;;17.17;5.53;;;9.00;99.90;;;;;;5114633;28;20057;-76
2023/12/17 08:57:41;;;;;;;17.98;6.32;;;9.80;99.90;;;;;;5115741;28;20015;-76
2023/12/17 09:00:07;;;;;;;25.33;8.40;;;9.00;99.90;;;;;;5097462;28;20042;-77
2023/12/17 09:02:34;;;;;;;20.25;7.75;;;9.00;99.90;;;;;;5097145;28;20023;-77
2023/12/17 09:05:00;;;;;;;24.23;9.07;;;8.90;99.90;;;;;;5115167;28;20063;-76
2023/12/17 09:07:29;;;;;;;25.50;9.63;;;8.80;99.90;;;;;;5115286;28;20024;-77
2023/12/17 09:09:55;;;;;;;26.55;9.13;;;8.90;99.90;;;;;;5097420;28;20081;-77
2023/12/17 09:12:21;;;;;;;22.08;8.15;;;8.90;99.90;;;;;;5115227;28;20058;-76
2023/12/17 09:14:46;;;;;;;29.15;10.50;;;8.90;99.90;;;;;;5115017;28;20383;-77
2023/12/17 09:17:12;;;;;;;29.20;11.32;;;8.90;99.90;;;;;;5114784;28;20497;-77
2023/12/17 09:19:38;;;;;;;26.65;11.30;;;8.80;99.90;;;;;;5115153;28;20360;-77
2023/12/17 09:22:03;;;;;;;28.20;10.15;;;8.80;99.90;;;;;;5115074;28;20421;-77
2023/12/17 09:24:29;;;;;;;32.30;10.63;;;8.80;99.90;;;;;;5115023;28;20027;-77
2023/12/17 09:26:55;;;;;;;33.88;11.82;;;8.80;99.90;;;;;;5114351;28;20028;-76
2023/12/17 09:29:20;;;;;;;30.33;11.45;;;8.80;99.90;;;;;;5114695;28;20106;-77
2023/12/17 09:31:46;;;;;;;32.22;10.85;;;8.70;99.90;;;;;;5115420;28;20030;-77
2023/12/17 09:34:14;;;;;;;30.50;11.45;;;9.80;99.90;;;;;;5114778;28;20080;-77
2023/12/17 09:36:40;;;;;;;32.17;12.32;;;8.70;99.90;;;;;;5096727;28;20077;-77
2023/12/17 09:39:06;;;;;;;35.50;12.30;;;8.70;99.90;;;;;;5115351;28;20098;-77
2023/12/17 09:41:32;;;;;;;31.02;11.55;;;8.70;99.90;;;;;;5097124;28;20124;-78
2023/12/17 09:43:58;;;;;;;34.25;11.45;;;8.70;99.90;;;;;;5097463;28;20038;-77
2023/12/17 09:46:24;;;;;;;31.63;11.38;;;8.70;99.90;;;;;;5096837;28;20023;-77
2023/12/17 09:48:49;;;;;;;34.95;11.65;;;8.70;99.90;;;;;;5114734;28;20389;-75
2023/12/17 09:51:16;;;;;;;31.33;12.30;;;8.70;99.90;;;;;;5095652;28;20020;-76
2023/12/17 09:53:42;;;;;;;28.52;10.40;;;8.80;99.90;;;;;;5113954;28;20536;-75
2023/12/17 09:56:08;;;;;;;28.98;11.20;;;8.70;99.90;;;;;;5096120;28;20027;-76
2023/12/17 09:58:34;;;;;;;31.38;10.88;;;8.70;99.90;;;;;;5095815;28;20016;-76
2023/12/17 10:00:59;;;;;;;33.92;12.45;;;8.60;99.90;;;;;;5095595;28;20479;-75
2023/12/17 10:03:25;;;;;;;35.05;12.20;;;8.50;99.90;;;;;;5095695;28;20024;-75
2023/12/17 10:05:52;;;;;;;32.90;12.48;;;8.60;99.90;;;;;;5113882;28;20058;-76
2023/12/17 10:08:18;;;;;;;37.42;12.50;;;8.60;99.90;;;;;;5113790;28;20399;-76
2023/12/17 10:10:44;;;;;;;37.45;12.32;;;8.50;99.90;;;;;;5113531;28;20031;-76
2023/12/17 10:13:12;;;;;;;32.58;11.57;;;8.50;99.90;;;;;;5113803;28;20409;-76
2023/12/17 10:15:38;;;;;;;30.20;9.67;;;8.50;99.90;;;;;;5095657;28;20055;-76
2023/12/17 10:18:04;;;;;;;29.30;10.55;;;9.90;99.90;;;;;;5095314;28;20297;-76
2023/12/17 10:20:30;;;;;;;31.52;11.48;;;8.50;99.90;;;;;;5113780;28;20082;-76
2023/12/17 10:23:01;;;;;;;33.22;10.93;;;8.50;99.90;;;;;;5114083;28;20023;-76
2023/12/17 10:25:27;;;;;;;27.52;9.80;;;8.50;99.90;;;;;;5095392;28;20059;-76
2023/12/17 10:27:59;;;;;;;28.17;10.60;;;8.50;99.90;;;;;;5113505;28;20513;-76
2023/12/17 10:30:43;;;;;;;30.65;10.35;;;8.50;99.90;;;;;;5113483;28;20487;-76
2023/12/17 10:33:14;;;;;;;30.95;10.85;;;8.50;99.90;;;;;;5113629;28;20054;-75
2023/12/17 10:35:41;;;;;;;29.85;10.38;;;8.50;99.90;;;;;;5114131;28;20027;-76
2023/12/17 10:38:10;;;;;;;25.30;9.32;;;8.50;99.90;;;;;;5116718;28;20023;-76
2023/12/17 10:40:39;;;;;;;;;;;8.50;99.90;;;;;;5117587;28;20036;-75
2023/12/17 10:43:05;;;;;;;26.13;8.70;;;8.50;99.90;;;;;;5117478;28;19908;-76
2023/12/17 10:45:31;;;;;;;22.52;8.13;;;8.50;99.90;;;;;;5117371;28;20042;-76
2023/12/17 10:47:59;;;;;;;19.30;7.85;;;8.60;99.90;;;;;;5117357;28;20020;-76
2023/12/17 10:50:26;;;;;;;20.85;8.32;;;8.60;99.90;;;;;;5098737;28;20028;-77
2023/12/17 10:52:51;;;;;;;22.17;8.60;;;8.60;99.90;;;;;;5117158;28;20055;-76
2023/12/17 10:55:18;;;;;;;22.88;9.38;;;8.70;99.90;;;;;;5117043;28;20069;-76
2023/12/17 10:58:04;;;;;;;22.25;8.18;;;8.70;99.90;;;;;;5117072;28;20019;-76
2023/12/17 11:00:32;;;;;;;25.25;9.27;;;8.80;99.90;;;;;;5117569;28;20019;-76
2023/12/17 11:03:36;;;;;;;27.25;9.90;;;8.90;99.90;;;;;;5117372;28;20028;-76
2023/12/17 11:06:04;;;;;;;35.13;9.98;;;8.80;99.90;;;;;;5037580;28;20480;-76
2023/12/17 11:08:30;;;;;;;27.83;9.10;;;8.80;99.90;;;;;;5088205;28;20024;-76
2023/12/17 11:10:57;;;;;;;22.05;9.32;;;8.90;99.90;;;;;;5116697;28;20024;-77
2023/12/17 11:13:23;;;;;;;22.45;8.05;;;8.80;99.90;;;;;;5116756;28;20364;-75
2023/12/17 11:15:49;;;;;;;22.60;8.73;;;8.80;99.90;;;;;;5116675;28;20020;-76
2023/12/17 11:18:15;;;;;;;21.08;8.25;;;8.90;99.90;;;;;;5117181;28;20442;-76
2023/12/17 11:20:41;;;;;;;24.83;9.13;;;9.00;99.90;;;;;;5116373;28;20016;-76
2023/12/17 11:23:07;;;;;;;26.77;8.75;;;9.00;99.90;;;;;;5098338;28;20020;-75
2023/12/17 11:25:37;;;;;;;21.70;8.25;;;9.00;99.90;;;;;;5098112;28;20131;-75
2023/12/17 11:28:03;;;;;;;21.38;7.78;;;9.20;99.90;;;;;;5098221;28;20023;-75
2023/12/17 11:30:32;;;;;;;20.48;8.43;;;9.20;99.90;;;;;;5116391;28;20016;-76
2023/12/17 11:32:59;;;;;;;21.92;9.18;;;9.20;99.90;;;;;;5117190;28;20038;-76
2023/12/17 11:35:28;;;;;;;17.23;7.07;;;9.20;99.90;;;;;;5116172;28;20084;-77
2023/12/17 11:37:53;;;;;;;21.25;7.45;;;9.20;99.90;;;;;;5116152;28;20047;-76
2023/12/17 11:40:20;;;;;;;17.38;6.72;;;9.20;99.90;;;;;;5115863;28;20100;-76
2023/12/17 11:42:57;;;;;;;22.98;7.68;;;9.20;99.90;;;;;;5116259;28;20054;-77
2023/12/17 11:45:37;;;;;;;23.05;7.90;;;9.10;99.90;;;;;;5116177;28;20024;-76
2023/12/17 11:48:15;;;;;;;20.92;8.13;;;9.10;99.90;;;;;;5115235;28;20027;-76
2023/12/17 11:50:45;;;;;;;22.52;7.57;;;9.20;99.90;;;;;;5116472;28;20024;-76
2023/12/17 11:53:15;;;;;;;25.73;8.43;;;9.20;99.90;;;;;;5115968;28;20023;-77
2023/12/17 11:55:45;;;;;;;25.58;7.65;;;9.40;99.90;;;;;;5097649;28;20020;-76
2023/12/17 11:58:11;;;;;;;26.40;7.93;;;9.40;99.90;;;;;;5097294;28;20024;-76
2023/12/17 12:00:37;;;;;;;30.08;9.35;;;9.50;99.90;;;;;;5115632;28;20058;-76
2023/12/17 12:03:04;;;;;;;23.42;7.15;;;9.60;99.90;;;;;;5097539;28;20047;-76
2023/12/17 12:05:30;;;;;;;20.50;7.05;;;9.60;99.90;;;;;;5115514;28;20024;-75
2023/12/17 12:07:57;;;;;;;25.55;8.10;;;9.70;99.90;;;;;;5097175;28;20046;-76
2023/12/17 12:10:23;;;;;;;16.73;6.18;;;9.70;99.90;;;;;;5115485;28;20475;-76
2023/12/17 12:13:04;;;;;;;19.77;5.97;;;9.80;99.90;;;;;;5115360;28;20035;-77
2023/12/17 12:15:30;;;;;;;16.52;4.82;;;9.70;99.90;;;;;;5115426;28;20448;-76
2023/12/17 12:17:56;;;;;;;22.23;6.95;;;9.70;99.90;;;;;;5116164;28;20019;-76
2023/12/17 12:20:37;;;;;;;21.30;5.63;;;9.70;99.90;;;;;;5115473;28;20513;-76
2023/12/17 12:23:09;;;;;;;26.33;6.32;;;9.80;99.90;;;;;;5096978;28;20019;-75
2023/12/17 12:25:34;;;;;;;19.38;5.10;;;9.80;99.90;;;;;;5115577;28;20094;-76
2023/12/17 12:28:00;;;;;;;14.02;4.60;;;9.80;99.90;;;;;;5097286;28;20054;-75
2023/12/17 12:30:29;;;;;;;12.75;4.00;;;9.90;99.90;;;;;;5097172;28;20470;-76
2023/12/17 12:32:55;;;;;;;10.55;3.40;;;10.00;99.90;;;;;;5115039;28;20547;-77
2023/12/17 12:35:23;;;;;;;10.80;3.72;;;10.00;99.90;;;;;;5115333;28;20065;-76
2023/12/17 12:37:48;;;;;;;14.65;3.20;;;10.10;99.90;;;;;;5115364;28;20019;-76
2023/12/17 12:40:14;;;;;;;18.15;3.35;;;10.10;99.90;;;;;;5096634;28;20550;-74
2023/12/17 12:42:39;;;;;;;16.38;3.95;;;10.10;99.90;;;;;;5115137;28;20410;-76
2023/12/17 12:45:06;;;;;;;20.70;3.00;;;10.10;99.90;;;;;;5115031;28;20023;-76